sensor_id;sensor_type;location;lat;lon;timestamp;temperature;humidity
17994;DHT22;9122;48.406;9.984;2022-10-22T00:01:26;15.50;99.90
17994;DHT22;9122;48.406;9.984;2022-10-22T00:04:11;15.50;99.90
17994;DHT22;9122;48.406;9.984;2022-10-22T00:06:56;15.50;99.90
17994;DHT22;9122;48.406;9.984;2022-10-22T00:09:40;15.50;99.90
17994;DHT22;9122;48.406;9.984;2022-10-22T00:12:24;15.50;99.90
17994;DHT22;9122;48.406;9.984;2022-10-22T00:15:10;15.50;99.90
17994;DHT22;9122;48.406;9.984;2022-10-22T00:17:54;15.40;99.90
17994;DHT22;9122;48.406;9.984;2022-10-22T00:20:39;15.40;99.90
17994;DHT22;9122;48.406;9.984;2022-10-22T00:23:23;15.40;99.90
17994;DHT22;9122;48.406;9.984;2022-10-22T00:26:09;15.40;99.90
17994;DHT22;9122;48.406;9.984;2022-10-22T00:28:53;15.40;99.90
17994;DHT22;9122;48.406;9.984;2022-10-22T00:31:37;15.30;99.90
17994;DHT22;9122;48.406;9.984;2022-10-22T00:34:22;15.30;99.90
17994;DHT22;9122;48.406;9.984;2022-10-22T00:37:07;15.30;99.90
17994;DHT22;9122;48.406;9.984;2022-10-22T00:39:51;15.30;99.90
17994;DHT22;9122;48.406;9.984;2022-10-22T00:42:36;15.30;99.80
17994;DHT22;9122;48.406;9.984;2022-10-22T00:45:22;15.30;99.80
17994;DHT22;9122;48.406;9.984;2022-10-22T00:48:11;15.20;99.80
17994;DHT22;9122;48.406;9.984;2022-10-22T00:53:46;15.20;99.80
17994;DHT22;9122;48.406;9.984;2022-10-22T00:56:32;15.20;99.90
17994;DHT22;9122;48.406;9.984;2022-10-22T00:59:16;15.20;99.90
17994;DHT22;9122;48.406;9.984;2022-10-22T01:02:02;15.20;99.90
17994;DHT22;9122;48.406;9.984;2022-10-22T01:04:46;15.20;99.90
17994;DHT22;9122;48.406;9.984;2022-10-22T01:07:39;15.20;99.90
17994;DHT22;9122;48.406;9.984;2022-10-22T01:10:51;15.20;99.90
17994;DHT22;9122;48.406;9.984;2022-10-22T01:14:27;15.20;99.90
17994;DHT22;9122;48.406;9.984;2022-10-22T01:17:22;15.10;99.90
17994;DHT22;9122;48.406;9.984;2022-10-22T01:29:21;15.10;99.90
17994;DHT22;9122;48.406;9.984;2022-10-22T01:32:13;15.10;99.90
17994;DHT22;9122;48.406;9.984;2022-10-22T01:35:05;15.00;99.90
17994;DHT22;9122;48.406;9.984;2022-10-22T01:37:58;15.00;99.90
17994;DHT22;9122;48.406;9.984;2022-10-22T01:40:45;15.00;99.70
17994;DHT22;9122;48.406;9.984;2022-10-22T01:43:29;15.00;99.90
17994;DHT22;9122;48.406;9.984;2022-10-22T01:46:16;15.00;99.70
17994;DHT22;9122;48.406;9.984;2022-10-22T01:49:16;15.00;99.80
17994;DHT22;9122;48.406;9.984;2022-10-22T02:07:14;14.90;99.90
17994;DHT22;9122;48.406;9.984;2022-10-22T02:09:59;14.90;99.90
17994;DHT22;9122;48.406;9.984;2022-10-22T02:12:48;14.90;99.90
17994;DHT22;9122;48.406;9.984;2022-10-22T02:15:35;14.90;99.90
17994;DHT22;9122;48.406;9.984;2022-10-22T02:18:22;14.80;99.90
17994;DHT22;9122;48.406;9.984;2022-10-22T02:21:08;14.80;99.90
17994;DHT22;9122;48.406;9.984;2022-10-22T02:23:53;14.80;99.90
17994;DHT22;9122;48.406;9.984;2022-10-22T02:27:00;14.80;99.90
17994;DHT22;9122;48.406;9.984;2022-10-22T02:30:01;14.80;99.90
17994;DHT22;9122;48.406;9.984;2022-10-22T02:32:54;14.70;99.90
17994;DHT22;9122;48.406;9.984;2022-10-22T02:35:41;14.70;99.90
17994;DHT22;9122;48.406;9.984;2022-10-22T02:38:26;14.70;99.90
17994;DHT22;9122;48.406;9.984;2022-10-22T02:41:10;14.70;99.90
17994;DHT22;9122;48.406;9.984;2022-10-22T02:43:55;14.70;99.90
17994;DHT22;9122;48.406;9.984;2022-10-22T02:46:41;14.60;99.90
17994;DHT22;9122;48.406;9.984;2022-10-22T02:49:26;14.60;99.90
17994;DHT22;9122;48.406;9.984;2022-10-22T02:52:10;14.60;99.90
17994;DHT22;9122;48.406;9.984;2022-10-22T02:54:54;14.60;99.90
17994;DHT22;9122;48.406;9.984;2022-10-22T02:57:39;14.60;99.90
17994;DHT22;9122;48.406;9.984;2022-10-22T03:00:23;14.60;99.90
17994;DHT22;9122;48.406;9.984;2022-10-22T03:03:07;14.50;99.90
17994;DHT22;9122;48.406;9.984;2022-10-22T03:05:52;14.60;99.90
17994;DHT22;9122;48.406;9.984;2022-10-22T03:08:36;14.50;99.90
17994;DHT22;9122;48.406;9.984;2022-10-22T03:11:21;14.50;99.90
17994;DHT22;9122;48.406;9.984;2022-10-22T03:14:05;14.50;99.90
17994;DHT22;9122;48.406;9.984;2022-10-22T03:16:49;14.50;99.90
17994;DHT22;9122;48.406;9.984;2022-10-22T03:19:33;14.50;99.90
17994;DHT22;9122;48.406;9.984;2022-10-22T03:22:26;14.50;99.90
17994;DHT22;9122;48.406;9.984;2022-10-22T03:25:16;14.50;99.90
17994;DHT22;9122;48.406;9.984;2022-10-22T03:28:04;14.50;99.90
17994;DHT22;9122;48.406;9.984;2022-10-22T03:30:49;14.40;99.90
17994;DHT22;9122;48.406;9.984;2022-10-22T03:33:33;14.50;99.90
17994;DHT22;9122;48.406;9.984;2022-10-22T03:36:18;14.40;99.90
17994;DHT22;9122;48.406;9.984;2022-10-22T03:39:03;14.40;99.90
17994;DHT22;9122;48.406;9.984;2022-10-22T03:41:49;14.40;99.90
17994;DHT22;9122;48.406;9.984;2022-10-22T03:44:36;14.40;99.90
17994;DHT22;9122;48.406;9.984;2022-10-22T03:47:20;14.40;99.90
17994;DHT22;9122;48.406;9.984;2022-10-22T03:50:07;14.30;99.90
17994;DHT22;9122;48.406;9.984;2022-10-22T03:52:52;14.40;99.90
17994;DHT22;9122;48.406;9.984;2022-10-22T03:55:37;14.30;99.90
17994;DHT22;9122;48.406;9.984;2022-10-22T03:58:23;14.30;99.90
17994;DHT22;9122;48.406;9.984;2022-10-22T04:01:09;14.30;99.90
17994;DHT22;9122;48.406;9.984;2022-10-22T04:03:54;14.30;99.90
17994;DHT22;9122;48.406;9.984;2022-10-22T04:06:39;14.30;99.90
17994;DHT22;9122;48.406;9.984;2022-10-22T04:09:23;14.30;99.90
17994;DHT22;9122;48.406;9.984;2022-10-22T04:12:08;14.30;99.90
17994;DHT22;9122;48.406;9.984;2022-10-22T04:14:53;14.30;99.90
17994;DHT22;9122;48.406;9.984;2022-10-22T04:17:37;14.30;99.90
17994;DHT22;9122;48.406;9.984;2022-10-22T04:20:22;14.20;99.90
17994;DHT22;9122;48.406;9.984;2022-10-22T04:23:06;14.30;99.90
17994;DHT22;9122;48.406;9.984;2022-10-22T04:25:59;14.20;99.90
17994;DHT22;9122;48.406;9.984;2022-10-22T04:28:45;14.20;99.90
17994;DHT22;9122;48.406;9.984;2022-10-22T04:31:30;14.20;99.90
17994;DHT22;9122;48.406;9.984;2022-10-22T04:34:15;14.30;99.90
17994;DHT22;9122;48.406;9.984;2022-10-22T04:36:59;14.20;99.90
17994;DHT22;9122;48.406;9.984;2022-10-22T04:39:44;14.20;99.90
17994;DHT22;9122;48.406;9.984;2022-10-22T04:42:29;14.20;99.90
17994;DHT22;9122;48.406;9.984;2022-10-22T04:45:13;14.20;99.90
17994;DHT22;9122;48.406;9.984;2022-10-22T04:47:58;14.20;99.90
17994;DHT22;9122;48.406;9.984;2022-10-22T04:50:43;14.20;99.90
17994;DHT22;9122;48.406;9.984;2022-10-22T04:53:27;14.20;99.90
17994;DHT22;9122;48.406;9.984;2022-10-22T04:59:06;14.10;99.90
17994;DHT22;9122;48.406;9.984;2022-10-22T05:01:50;14.10;99.90
17994;DHT22;9122;48.406;9.984;2022-10-22T05:04:35;14.10;99.90
17994;DHT22;9122;48.406;9.984;2022-10-22T05:07:19;14.10;99.90
17994;DHT22;9122;48.406;9.984;2022-10-22T05:10:04;14.10;99.90
17994;DHT22;9122;48.406;9.984;2022-10-22T05:12:48;14.10;99.90
17994;DHT22;9122;48.406;9.984;2022-10-22T05:15:34;14.10;99.90
17994;DHT22;9122;48.406;9.984;2022-10-22T05:18:18;14.10;99.90
17994;DHT22;9122;48.406;9.984;2022-10-22T05:21:06;14.10;99.90
17994;DHT22;9122;48.406;9.984;2022-10-22T05:23:52;14.10;99.90
17994;DHT22;9122;48.406;9.984;2022-10-22T05:26:37;14.10;99.90
17994;DHT22;9122;48.406;9.984;2022-10-22T05:29:23;14.10;99.90
17994;DHT22;9122;48.406;9.984;2022-10-22T05:32:08;14.10;99.90
17994;DHT22;9122;48.406;9.984;2022-10-22T05:34:53;14.00;99.90
17994;DHT22;9122;48.406;9.984;2022-10-22T05:37:37;14.10;99.90
17994;DHT22;9122;48.406;9.984;2022-10-22T05:40:21;14.00;99.90
17994;DHT22;9122;48.406;9.984;2022-10-22T05:43:06;14.00;99.90
17994;DHT22;9122;48.406;9.984;2022-10-22T05:45:50;14.00;99.90
17994;DHT22;9122;48.406;9.984;2022-10-22T05:48:35;14.00;99.90
17994;DHT22;9122;48.406;9.984;2022-10-22T05:51:20;14.00;99.90
17994;DHT22;9122;48.406;9.984;2022-10-22T05:54:06;14.00;99.90
17994;DHT22;9122;48.406;9.984;2022-10-22T05:56:50;14.00;99.90
17994;DHT22;9122;48.406;9.984;2022-10-22T05:59:35;14.00;99.90
17994;DHT22;9122;48.406;9.984;2022-10-22T06:02:19;14.00;99.90
17994;DHT22;9122;48.406;9.984;2022-10-22T06:05:04;14.00;99.90
17994;DHT22;9122;48.406;9.984;2022-10-22T06:07:49;14.00;99.90
17994;DHT22;9122;48.406;9.984;2022-10-22T06:10:33;14.00;99.90
17994;DHT22;9122;48.406;9.984;2022-10-22T06:13:18;14.00;99.90
17994;DHT22;9122;48.406;9.984;2022-10-22T06:16:03;14.00;99.90
17994;DHT22;9122;48.406;9.984;2022-10-22T06:18:47;14.00;99.90
17994;DHT22;9122;48.406;9.984;2022-10-22T06:21:32;14.00;99.90
17994;DHT22;9122;48.406;9.984;2022-10-22T06:24:17;14.00;99.90
17994;DHT22;9122;48.406;9.984;2022-10-22T06:27:01;14.00;99.90
17994;DHT22;9122;48.406;9.984;2022-10-22T06:29:47;14.00;99.90
17994;DHT22;9122;48.406;9.984;2022-10-22T06:32:31;14.00;99.90
17994;DHT22;9122;48.406;9.984;2022-10-22T06:35:15;14.00;99.90
17994;DHT22;9122;48.406;9.984;2022-10-22T06:38:00;14.00;99.90
17994;DHT22;9122;48.406;9.984;2022-10-22T06:40:44;14.00;99.90
17994;DHT22;9122;48.406;9.984;2022-10-22T06:43:28;14.00;99.90
17994;DHT22;9122;48.406;9.984;2022-10-22T06:46:20;14.00;99.90
17994;DHT22;9122;48.406;9.984;2022-10-22T06:49:05;14.00;99.90
17994;DHT22;9122;48.406;9.984;2022-10-22T06:51:51;14.00;99.90
17994;DHT22;9122;48.406;9.984;2022-10-22T06:54:35;14.00;99.90
17994;DHT22;9122;48.406;9.984;2022-10-22T06:57:20;14.00;99.90
17994;DHT22;9122;48.406;9.984;2022-10-22T07:00:06;14.00;99.90
17994;DHT22;9122;48.406;9.984;2022-10-22T07:02:51;14.00;99.90
17994;DHT22;9122;48.406;9.984;2022-10-22T07:05:36;14.00;99.90
17994;DHT22;9122;48.406;9.984;2022-10-22T07:08:20;14.00;99.90
17994;DHT22;9122;48.406;9.984;2022-10-22T07:11:10;14.00;99.90
17994;DHT22;9122;48.406;9.984;2022-10-22T07:13:57;14.00;99.90
17994;DHT22;9122;48.406;9.984;2022-10-22T07:16:41;14.00;99.90
17994;DHT22;9122;48.406;9.984;2022-10-22T07:19:26;14.00;99.90
17994;DHT22;9122;48.406;9.984;2022-10-22T07:22:11;14.00;99.90
17994;DHT22;9122;48.406;9.984;2022-10-22T07:24:55;14.00;99.90
17994;DHT22;9122;48.406;9.984;2022-10-22T07:27:39;14.00;99.90
17994;DHT22;9122;48.406;9.984;2022-10-22T07:30:24;14.00;99.90
17994;DHT22;9122;48.406;9.984;2022-10-22T07:33:08;14.00;99.90
17994;DHT22;9122;48.406;9.984;2022-10-22T07:35:57;14.10;99.90
17994;DHT22;9122;48.406;9.984;2022-10-22T07:38:44;14.10;99.90
17994;DHT22;9122;48.406;9.984;2022-10-22T07:41:30;14.10;99.90
17994;DHT22;9122;48.406;9.984;2022-10-22T07:44:14;14.10;99.90
17994;DHT22;9122;48.406;9.984;2022-10-22T07:46:58;14.10;99.90
17994;DHT22;9122;48.406;9.984;2022-10-22T07:49:42;14.10;99.90
17994;DHT22;9122;48.406;9.984;2022-10-22T07:52:26;14.10;99.90
17994;DHT22;9122;48.406;9.984;2022-10-22T07:55:11;14.10;99.90
17994;DHT22;9122;48.406;9.984;2022-10-22T07:57:56;14.10;99.90
17994;DHT22;9122;48.406;9.984;2022-10-22T08:00:41;14.20;99.90
17994;DHT22;9122;48.406;9.984;2022-10-22T08:03:26;14.20;99.90
17994;DHT22;9122;48.406;9.984;2022-10-22T08:06:14;14.20;99.90
17994;DHT22;9122;48.406;9.984;2022-10-22T08:08:58;14.20;99.90
17994;DHT22;9122;48.406;9.984;2022-10-22T08:11:42;14.20;99.90
17994;DHT22;9122;48.406;9.984;2022-10-22T08:14:27;14.20;99.90
17994;DHT22;9122;48.406;9.984;2022-10-22T08:17:12;14.30;99.90
17994;DHT22;9122;48.406;9.984;2022-10-22T08:19:56;14.30;99.90
17994;DHT22;9122;48.406;9.984;2022-10-22T08:22:41;14.30;99.90
17994;DHT22;9122;48.406;9.984;2022-10-22T08:25:27;14.30;99.90
17994;DHT22;9122;48.406;9.984;2022-10-22T08:28:11;14.30;99.90
17994;DHT22;9122;48.406;9.984;2022-10-22T08:30:56;14.40;99.90
17994;DHT22;9122;48.406;9.984;2022-10-22T08:33:41;14.40;99.90
17994;DHT22;9122;48.406;9.984;2022-10-22T08:36:25;14.50;99.90
17994;DHT22;9122;48.406;9.984;2022-10-22T08:39:10;14.50;99.90
17994;DHT22;9122;48.406;9.984;2022-10-22T08:48:47;14.60;99.90
17994;DHT22;9122;48.406;9.984;2022-10-22T08:51:35;14.60;99.90
17994;DHT22;9122;48.406;9.984;2022-10-22T09:00:35;14.90;99.90
17994;DHT22;9122;48.406;9.984;2022-10-22T09:06:21;15.10;99.90
17994;DHT22;9122;48.406;9.984;2022-10-22T09:09:14;15.30;99.90
17994;DHT22;9122;48.406;9.984;2022-10-22T09:12:02;15.50;99.90
17994;DHT22;9122;48.406;9.984;2022-10-22T09:14:47;15.70;99.90
17994;DHT22;9122;48.406;9.984;2022-10-22T09:17:49;15.90;99.90
17994;DHT22;9122;48.406;9.984;2022-10-22T09:20:52;16.10;99.80
17994;DHT22;9122;48.406;9.984;2022-10-22T09:26:48;16.50;99.30
17994;DHT22;9122;48.406;9.984;2022-10-22T09:29:33;16.80;98.80
17994;DHT22;9122;48.406;9.984;2022-10-22T09:32:17;17.00;98.40
17994;DHT22;9122;48.406;9.984;2022-10-22T09:35:02;17.30;97.80
17994;DHT22;9122;48.406;9.984;2022-10-22T09:37:50;17.50;97.20
17994;DHT22;9122;48.406;9.984;2022-10-22T09:40:52;17.90;96.70
17994;DHT22;9122;48.406;9.984;2022-10-22T09:43:37;18.30;95.80
17994;DHT22;9122;48.406;9.984;2022-10-22T09:46:26;18.50;95.00
17994;DHT22;9122;48.406;9.984;2022-10-22T09:49:17;18.60;94.60
17994;DHT22;9122;48.406;9.984;2022-10-22T09:52:03;18.70;94.30
17994;DHT22;9122;48.406;9.984;2022-10-22T09:55:16;18.80;94.10
17994;DHT22;9122;48.406;9.984;2022-10-22T09:58:00;18.80;93.70
17994;DHT22;9122;48.406;9.984;2022-10-22T10:00:50;18.70;93.50
17994;DHT22;9122;48.406;9.984;2022-10-22T10:03:34;18.60;93.60
17994;DHT22;9122;48.406;9.984;2022-10-22T10:06:21;18.50;93.70
17994;DHT22;9122;48.406;9.984;2022-10-22T10:09:20;18.30;93.90
17994;DHT22;9122;48.406;9.984;2022-10-22T10:12:08;18.20;94.20
17994;DHT22;9122;48.406;9.984;2022-10-22T10:26:36;18.90;93.90
17994;DHT22;9122;48.406;9.984;2022-10-22T10:29:37;19.50;92.90
17994;DHT22;9122;48.406;9.984;2022-10-22T10:35:45;20.70;91.00
17994;DHT22;9122;48.406;9.984;2022-10-22T10:42:42;20.70;89.70
17994;DHT22;9122;48.406;9.984;2022-10-22T10:45:58;20.40;90.10
17994;DHT22;9122;48.406;9.984;2022-10-22T10:48:55;20.20;90.40
17994;DHT22;9122;48.406;9.984;2022-10-22T10:55:12;19.90;91.10
17994;DHT22;9122;48.406;9.984;2022-10-22T11:00:59;19.70;91.40
17994;DHT22;9122;48.406;9.984;2022-10-22T11:06:39;19.60;91.40
17994;DHT22;9122;48.406;9.984;2022-10-22T11:09:34;19.50;91.50
17994;DHT22;9122;48.406;9.984;2022-10-22T11:12:33;19.50;91.40
17994;DHT22;9122;48.406;9.984;2022-10-22T11:15:34;19.50;91.40
17994;DHT22;9122;48.406;9.984;2022-10-22T11:18:27;19.50;91.50
17994;DHT22;9122;48.406;9.984;2022-10-22T11:21:33;19.50;91.40
17994;DHT22;9122;48.406;9.984;2022-10-22T11:24:48;19.40;91.50
17994;DHT22;9122;48.406;9.984;2022-10-22T11:30:34;19.50;91.50
17994;DHT22;9122;48.406;9.984;2022-10-22T11:33:22;19.50;91.50
17994;DHT22;9122;48.406;9.984;2022-10-22T11:36:08;19.50;91.60
17994;DHT22;9122;48.406;9.984;2022-10-22T11:38:53;19.50;91.60
17994;DHT22;9122;48.406;9.984;2022-10-22T11:41:38;19.50;91.60
17994;DHT22;9122;48.406;9.984;2022-10-22T11:44:23;19.50;91.50
17994;DHT22;9122;48.406;9.984;2022-10-22T11:47:23;19.50;91.40
17994;DHT22;9122;48.406;9.984;2022-10-22T11:50:18;19.60;91.40
17994;DHT22;9122;48.406;9.984;2022-10-22T11:53:17;19.60;91.40
17994;DHT22;9122;48.406;9.984;2022-10-22T11:58:49;19.70;91.40
17994;DHT22;9122;48.406;9.984;2022-10-22T12:01:41;19.70;91.30
17994;DHT22;9122;48.406;9.984;2022-10-22T12:04:39;19.80;91.20
17994;DHT22;9122;48.406;9.984;2022-10-22T12:07:48;19.80;91.20
17994;DHT22;9122;48.406;9.984;2022-10-22T12:10:47;19.80;91.00
17994;DHT22;9122;48.406;9.984;2022-10-22T12:13:52;19.90;91.20
17994;DHT22;9122;48.406;9.984;2022-10-22T12:19:41;19.90;91.20
17994;DHT22;9122;48.406;9.984;2022-10-22T12:22:28;19.90;91.20
17994;DHT22;9122;48.406;9.984;2022-10-22T12:25:24;20.00;91.00
17994;DHT22;9122;48.406;9.984;2022-10-22T12:28:12;19.90;91.00
17994;DHT22;9122;48.406;9.984;2022-10-22T12:30:58;19.90;91.00
17994;DHT22;9122;48.406;9.984;2022-10-22T12:33:43;19.90;90.80
17994;DHT22;9122;48.406;9.984;2022-10-22T12:36:29;19.90;90.80
17994;DHT22;9122;48.406;9.984;2022-10-22T12:39:18;19.80;90.80
17994;DHT22;9122;48.406;9.984;2022-10-22T12:42:04;19.70;91.00
17994;DHT22;9122;48.406;9.984;2022-10-22T12:44:54;19.70;91.10
17994;DHT22;9122;48.406;9.984;2022-10-22T12:47:38;19.70;91.20
17994;DHT22;9122;48.406;9.984;2022-10-22T12:50:41;19.60;91.00
17994;DHT22;9122;48.406;9.984;2022-10-22T12:53:32;19.50;91.00
17994;DHT22;9122;48.406;9.984;2022-10-22T12:56:26;19.50;91.10
17994;DHT22;9122;48.406;9.984;2022-10-22T12:59:19;19.50;91.20
17994;DHT22;9122;48.406;9.984;2022-10-22T13:02:22;19.40;91.50
17994;DHT22;9122;48.406;9.984;2022-10-22T13:08:08;19.50;91.60
17994;DHT22;9122;48.406;9.984;2022-10-22T13:10:54;19.50;91.50
17994;DHT22;9122;48.406;9.984;2022-10-22T13:16:24;19.50;91.30
17994;DHT22;9122;48.406;9.984;2022-10-22T13:19:34;19.50;91.30
17994;DHT22;9122;48.406;9.984;2022-10-22T13:25:26;19.60;91.40
17994;DHT22;9122;48.406;9.984;2022-10-22T13:31:00;19.70;91.20
17994;DHT22;9122;48.406;9.984;2022-10-22T13:33:51;19.70;91.00
17994;DHT22;9122;48.406;9.984;2022-10-22T13:36:36;19.70;90.70
17994;DHT22;9122;48.406;9.984;2022-10-22T13:39:22;19.70;90.50
17994;DHT22;9122;48.406;9.984;2022-10-22T13:42:11;19.80;90.60
17994;DHT22;9122;48.406;9.984;2022-10-22T13:44:56;19.80;90.60
17994;DHT22;9122;48.406;9.984;2022-10-22T13:47:40;19.80;90.50
17994;DHT22;9122;48.406;9.984;2022-10-22T13:50:25;19.80;90.40
17994;DHT22;9122;48.406;9.984;2022-10-22T13:53:15;19.80;90.30
17994;DHT22;9122;48.406;9.984;2022-10-22T13:56:00;19.90;90.30
17994;DHT22;9122;48.406;9.984;2022-10-22T13:58:46;19.90;90.30
17994;DHT22;9122;48.406;9.984;2022-10-22T14:01:31;19.90;90.30
17994;DHT22;9122;48.406;9.984;2022-10-22T14:04:15;19.90;90.30
17994;DHT22;9122;48.406;9.984;2022-10-22T14:07:00;19.90;90.30
17994;DHT22;9122;48.406;9.984;2022-10-22T14:09:44;19.90;90.40
17994;DHT22;9122;48.406;9.984;2022-10-22T14:12:29;19.90;90.30
17994;DHT22;9122;48.406;9.984;2022-10-22T14:15:14;19.90;90.00
17994;DHT22;9122;48.406;9.984;2022-10-22T14:17:59;19.90;90.00
17994;DHT22;9122;48.406;9.984;2022-10-22T14:20:44;19.90;90.10
17994;DHT22;9122;48.406;9.984;2022-10-22T14:23:29;19.90;90.10
17994;DHT22;9122;48.406;9.984;2022-10-22T14:26:22;19.90;90.10
17994;DHT22;9122;48.406;9.984;2022-10-22T14:29:07;19.90;90.10
17994;DHT22;9122;48.406;9.984;2022-10-22T14:31:51;19.90;90.20
17994;DHT22;9122;48.406;9.984;2022-10-22T14:34:36;20.00;90.30
17994;DHT22;9122;48.406;9.984;2022-10-22T14:37:20;20.00;90.30
17994;DHT22;9122;48.406;9.984;2022-10-22T14:40:08;20.00;90.20
17994;DHT22;9122;48.406;9.984;2022-10-22T14:42:53;19.90;90.10
17994;DHT22;9122;48.406;9.984;2022-10-22T14:45:38;19.90;89.30
17994;DHT22;9122;48.406;9.984;2022-10-22T14:48:22;19.90;88.70
17994;DHT22;9122;48.406;9.984;2022-10-22T14:51:13;19.90;89.20
17994;DHT22;9122;48.406;9.984;2022-10-22T14:53:58;19.90;89.00
17994;DHT22;9122;48.406;9.984;2022-10-22T14:56:42;19.90;88.90
17994;DHT22;9122;48.406;9.984;2022-10-22T14:59:27;19.90;89.30
17994;DHT22;9122;48.406;9.984;2022-10-22T15:02:11;19.90;89.40
17994;DHT22;9122;48.406;9.984;2022-10-22T15:04:56;19.90;89.60
17994;DHT22;9122;48.406;9.984;2022-10-22T15:07:40;19.90;89.80
17994;DHT22;9122;48.406;9.984;2022-10-22T15:10:25;19.90;89.70
17994;DHT22;9122;48.406;9.984;2022-10-22T15:13:10;19.90;89.40
17994;DHT22;9122;48.406;9.984;2022-10-22T15:15:55;19.90;89.30
17994;DHT22;9122;48.406;9.984;2022-10-22T15:18:40;19.90;89.30
17994;DHT22;9122;48.406;9.984;2022-10-22T15:21:25;19.90;89.40
17994;DHT22;9122;48.406;9.984;2022-10-22T15:24:09;19.80;89.40
17994;DHT22;9122;48.406;9.984;2022-10-22T15:26:54;19.80;89.00
17994;DHT22;9122;48.406;9.984;2022-10-22T15:29:40;19.80;89.00
17994;DHT22;9122;48.406;9.984;2022-10-22T15:32:26;19.80;89.40
17994;DHT22;9122;48.406;9.984;2022-10-22T15:35:11;19.70;89.40
17994;DHT22;9122;48.406;9.984;2022-10-22T15:37:56;19.70;89.40
17994;DHT22;9122;48.406;9.984;2022-10-22T15:40:40;19.70;89.50
17994;DHT22;9122;48.406;9.984;2022-10-22T15:43:24;19.70;89.80
17994;DHT22;9122;48.406;9.984;2022-10-22T15:48:53;19.60;90.00
17994;DHT22;9122;48.406;9.984;2022-10-22T15:51:38;19.60;90.00
17994;DHT22;9122;48.406;9.984;2022-10-22T15:54:25;19.60;90.10
17994;DHT22;9122;48.406;9.984;2022-10-22T15:57:11;19.50;90.10
17994;DHT22;9122;48.406;9.984;2022-10-22T15:59:56;19.50;90.20
17994;DHT22;9122;48.406;9.984;2022-10-22T16:02:41;19.50;90.20
17994;DHT22;9122;48.406;9.984;2022-10-22T16:05:26;19.50;90.20
17994;DHT22;9122;48.406;9.984;2022-10-22T16:08:10;19.50;90.40
17994;DHT22;9122;48.406;9.984;2022-10-22T16:10:55;19.50;90.50
17994;DHT22;9122;48.406;9.984;2022-10-22T16:13:40;19.40;90.60
17994;DHT22;9122;48.406;9.984;2022-10-22T16:16:27;19.40;90.70
17994;DHT22;9122;48.406;9.984;2022-10-22T16:19:14;19.40;90.90
17994;DHT22;9122;48.406;9.984;2022-10-22T16:22:02;19.30;91.00
17994;DHT22;9122;48.406;9.984;2022-10-22T16:24:46;19.30;91.30
17994;DHT22;9122;48.406;9.984;2022-10-22T16:27:31;19.30;91.40
17994;DHT22;9122;48.406;9.984;2022-10-22T16:30:15;19.20;91.60
17994;DHT22;9122;48.406;9.984;2022-10-22T16:33:00;19.20;91.70
17994;DHT22;9122;48.406;9.984;2022-10-22T16:35:47;19.10;91.80
17994;DHT22;9122;48.406;9.984;2022-10-22T16:38:32;19.10;91.90
17994;DHT22;9122;48.406;9.984;2022-10-22T16:41:21;19.10;92.00
17994;DHT22;9122;48.406;9.984;2022-10-22T16:44:06;19.00;92.00
17994;DHT22;9122;48.406;9.984;2022-10-22T16:46:51;18.90;92.10
17994;DHT22;9122;48.406;9.984;2022-10-22T16:49:36;18.90;92.10
17994;DHT22;9122;48.406;9.984;2022-10-22T16:52:20;18.90;92.20
17994;DHT22;9122;48.406;9.984;2022-10-22T16:55:05;18.80;92.20
17994;DHT22;9122;48.406;9.984;2022-10-22T16:57:50;18.80;92.30
17994;DHT22;9122;48.406;9.984;2022-10-22T17:00:36;18.70;92.30
17994;DHT22;9122;48.406;9.984;2022-10-22T17:03:21;18.70;92.40
17994;DHT22;9122;48.406;9.984;2022-10-22T17:06:06;18.70;92.40
17994;DHT22;9122;48.406;9.984;2022-10-22T17:08:50;18.60;92.50
17994;DHT22;9122;48.406;9.984;2022-10-22T17:11:35;18.60;92.60
17994;DHT22;9122;48.406;9.984;2022-10-22T17:14:21;18.60;92.60
17994;DHT22;9122;48.406;9.984;2022-10-22T17:17:05;18.50;92.60
17994;DHT22;9122;48.406;9.984;2022-10-22T17:19:50;18.50;92.60
17994;DHT22;9122;48.406;9.984;2022-10-22T17:22:35;18.40;92.70
17994;DHT22;9122;48.406;9.984;2022-10-22T17:25:24;18.40;92.70
17994;DHT22;9122;48.406;9.984;2022-10-22T17:28:16;18.40;92.80
17994;DHT22;9122;48.406;9.984;2022-10-22T17:31:10;18.30;92.90
17994;DHT22;9122;48.406;9.984;2022-10-22T17:33:55;18.30;92.90
17994;DHT22;9122;48.406;9.984;2022-10-22T17:36:40;18.30;93.00
17994;DHT22;9122;48.406;9.984;2022-10-22T17:39:25;18.20;93.00
17994;DHT22;9122;48.406;9.984;2022-10-22T17:42:09;18.20;93.10
17994;DHT22;9122;48.406;9.984;2022-10-22T17:44:54;18.10;93.10
17994;DHT22;9122;48.406;9.984;2022-10-22T17:47:39;18.10;93.10
17994;DHT22;9122;48.406;9.984;2022-10-22T17:50:23;18.10;93.20
17994;DHT22;9122;48.406;9.984;2022-10-22T17:53:08;18.00;93.20
17994;DHT22;9122;48.406;9.984;2022-10-22T17:56:00;18.00;93.20
17994;DHT22;9122;48.406;9.984;2022-10-22T17:58:46;18.00;93.30
17994;DHT22;9122;48.406;9.984;2022-10-22T18:01:33;17.90;93.30
17994;DHT22;9122;48.406;9.984;2022-10-22T18:04:18;17.90;93.40
17994;DHT22;9122;48.406;9.984;2022-10-22T18:07:03;17.80;93.40
17994;DHT22;9122;48.406;9.984;2022-10-22T18:09:47;17.80;93.50
17994;DHT22;9122;48.406;9.984;2022-10-22T18:12:32;17.80;93.50
17994;DHT22;9122;48.406;9.984;2022-10-22T18:15:16;17.70;93.50
17994;DHT22;9122;48.406;9.984;2022-10-22T18:18:04;17.70;93.50
17994;DHT22;9122;48.406;9.984;2022-10-22T18:20:50;17.70;93.60
17994;DHT22;9122;48.406;9.984;2022-10-22T18:23:35;17.70;93.60
17994;DHT22;9122;48.406;9.984;2022-10-22T18:26:20;17.60;93.60
17994;DHT22;9122;48.406;9.984;2022-10-22T18:29:04;17.60;93.60
17994;DHT22;9122;48.406;9.984;2022-10-22T18:31:49;17.50;93.70
17994;DHT22;9122;48.406;9.984;2022-10-22T18:34:34;17.50;93.60
17994;DHT22;9122;48.406;9.984;2022-10-22T18:37:20;17.50;93.40
17994;DHT22;9122;48.406;9.984;2022-10-22T18:40:05;17.50;93.30
17994;DHT22;9122;48.406;9.984;2022-10-22T18:42:50;17.40;93.20
17994;DHT22;9122;48.406;9.984;2022-10-22T18:45:34;17.40;93.30
17994;DHT22;9122;48.406;9.984;2022-10-22T18:48:19;17.40;93.40
17994;DHT22;9122;48.406;9.984;2022-10-22T18:51:08;17.30;93.40
17994;DHT22;9122;48.406;9.984;2022-10-22T18:53:52;17.30;93.50
17994;DHT22;9122;48.406;9.984;2022-10-22T18:56:40;17.20;93.60
17994;DHT22;9122;48.406;9.984;2022-10-22T18:59:26;17.20;93.60
17994;DHT22;9122;48.406;9.984;2022-10-22T19:02:10;17.20;93.70
17994;DHT22;9122;48.406;9.984;2022-10-22T19:04:55;17.10;93.60
17994;DHT22;9122;48.406;9.984;2022-10-22T19:07:39;17.10;93.60
17994;DHT22;9122;48.406;9.984;2022-10-22T19:10:24;17.00;93.60
17994;DHT22;9122;48.406;9.984;2022-10-22T19:13:08;17.00;93.60
17994;DHT22;9122;48.406;9.984;2022-10-22T19:15:53;17.00;93.60
17994;DHT22;9122;48.406;9.984;2022-10-22T19:18:37;16.90;93.70
17994;DHT22;9122;48.406;9.984;2022-10-22T19:21:22;16.90;93.70
17994;DHT22;9122;48.406;9.984;2022-10-22T19:24:07;16.80;93.70
17994;DHT22;9122;48.406;9.984;2022-10-22T19:26:51;16.80;93.70
17994;DHT22;9122;48.406;9.984;2022-10-22T19:29:36;16.80;93.60
17994;DHT22;9122;48.406;9.984;2022-10-22T19:32:21;16.70;93.50